Flight Track Log - Related Links

Times and Time Zones

All times are in EDT time to prevent confusion due to time zone crossing. See the XOJ549 flight status page for this flight to view local times or setup timezone preferences in your user account.

Time Position Orientation Groundspeed Altitude Reporting Facility
EDT Latitude Longitude Course Direction KTS MPH feet Rate Location/Type
Tue 12:14:03 PM 34.0000 -118.4667 257° West 161 185 800  Level Southern California TRACON
Tue 12:14:36 PM 33.9919 -118.5086 257° West 203 234 2,100 2,400 Climbing Los Angeles Center
Tue 12:15:38 PM 33.9956 -118.5733 274° West 195 224 4,600 2,371 Climbing Los Angeles Center
Tue 12:16:40 PM 34.0494 -118.5956 341° North 216 249 7,000 2,081 Climbing Los Angeles Center
Tue 12:17:42 PM 34.1061 -118.5578 29° Northeast 245 282 8,900 2,516 Climbing Los Angeles Center
Tue 12:18:44 PM 34.1689 -118.5156 29° Northeast 255 293 12,200 3,000 Climbing Los Angeles Center
Tue 12:19:46 PM 34.2594 -118.4608 27° Northeast 330 380 15,100 3,194 Climbing Los Angeles Center
Tue 12:20:48 PM 34.3542 -118.4028 27° Northeast 369 425 18,800 2,903 Climbing Los Angeles Center
Tue 12:21:50 PM 34.4719 -118.3269 28° Northeast 398 458 21,100 2,048 Climbing Los Angeles Center
Tue 12:22:54 PM 34.5294 -118.1994 61° Northeast 424 488 23,100 1,935 Climbing Los Angeles Center
Tue 12:23:54 PM 34.5675 -118.0558 72° East 439 505 25,100 1,756 Climbing Los Angeles Center
Tue 12:24:57 PM 34.6097 -117.9056 71° East 465 535 26,700 1,645 Climbing Los Angeles Center
Tue 12:25:58 PM 34.6561 -117.7486 70° East 484 557 28,500 1,756 Climbing Los Angeles Center
Tue 12:27:00 PM 34.7017 -117.5906 71° East 495 570 30,300 1,742 Climbing Los Angeles Center
Tue 12:28:02 PM 34.7594 -117.3964 70° East 510 587 32,100 1,597 Climbing Los Angeles Center
Tue 12:29:04 PM 34.8072 -117.2306 71° East 522 601 33,600 1,500 Climbing Los Angeles Center
Tue 12:30:06 PM 34.8547 -117.0617 71° East 530 610 35,200 1,512 Climbing Los Angeles Center
Tue 12:31:07 PM 34.9094 -116.9378 62° Northeast 529 609 36,700 1,463 Climbing Los Angeles Center
Tue 12:32:09 PM 34.9961 -116.8078 51° Northeast 505 581 38,200 1,776 Climbing Los Angeles Center
Tue 12:33:12 PM 35.1169 -116.6275 51° Northeast 494 568 40,400 1,344 Climbing Los Angeles Center
Tue 12:34:14 PM 35.2003 -116.5033 51° Northeast 479 551 41,000 290 Climbing Los Angeles Center
Tue 12:35:16 PM 35.2878 -116.3739 50° Northeast 491 565 41,000  Level Los Angeles Center
Tue 12:36:17 PM 35.3753 -116.2406 51° Northeast 502 578 41,000  Level Los Angeles Center
Tue 12:37:19 PM 35.4622 -116.1058 52° Northeast 505 581 41,000  Level Los Angeles Center
Tue 12:38:21 PM 35.5339 -115.9997 50° Northeast 505 581 41,000  Level Los Angeles Center
Tue 12:39:23 PM 35.6478 -115.8256 51° Northeast 500 575 41,000  Level Los Angeles Center
Tue 12:40:25 PM 35.7347 -115.6928 51° Northeast 500 575 41,000  Level Los Angeles Center
Tue 12:41:27 PM 35.8381 -115.5339 51° Northeast 498 573 41,000  Level Los Angeles Center
Tue 12:42:29 PM 35.9250 -115.4003 51° Northeast 502 578 41,000  Level Los Angeles Center
Tue 12:43:31 PM 36.0094 -115.2692 51° Northeast 491 565 41,000  Level Los Angeles Center
Tue 12:44:33 PM 36.0953 -115.1383 51° Northeast 492 566 41,000  Level Los Angeles Center
Tue 12:45:35 PM 36.1919 -115.0167 45° Northeast 499 574 41,000  Level Los Angeles Center
Tue 12:46:37 PM 36.3064 -114.8708 46° Northeast 496 571 41,000  Level Los Angeles Center
Tue 12:47:38 PM 36.3839 -114.7736 45° Northeast 497 572 41,000  Level Los Angeles Center
Tue 12:48:41 PM 36.4975 -114.6269 46° Northeast 494 568 41,000  Level Los Angeles Center
Tue 12:49:43 PM 36.5922 -114.5039 46° Northeast 494 568 41,000  Level Los Angeles Center
Tue 12:50:45 PM 36.6886 -114.3819 45° Northeast 494 568 41,000  Level Los Angeles Center
Tue 12:51:47 PM 36.7808 -114.2558 48° Northeast 493 567 41,000  Level Los Angeles Center
Tue 12:52:49 PM 36.8636 -114.0781 60° Northeast 495 570 41,000  Level Los Angeles Center
Tue 12:53:51 PM 36.9339 -113.9297 59° Northeast 496 571 41,000  Level Los Angeles Center
Tue 12:54:53 PM 36.9975 -113.7972 59° Northeast 492 566 41,000  Level Los Angeles Center
Tue 12:55:55 PM 37.0800 -113.6214 60° Northeast 491 565 41,000  Level Los Angeles Center
Tue 12:56:57 PM 37.1500 -113.4744 59° Northeast 492 566 41,000  Level Los Angeles Center
Tue 12:57:59 PM 37.2186 -113.3281 59° Northeast 490 564 41,000  Level Los Angeles Center
Tue 12:58:23 PM 37.2447 -113.2700 61° Northeast 489 563 41,000  Level Salt Lake Center
Tue 12:59:24 PM 37.3131 -113.1231 60° Northeast 490 564 41,000  Level Salt Lake Center
Tue 01:00:26 PM 37.3800 -112.9758 60° Northeast 490 564 41,000  Level Salt Lake Center
Tue 01:01:28 PM 37.4483 -112.8306 59° Northeast 491 565 41,000  Level Salt Lake Center
Tue 01:02:29 PM 37.5278 -112.6578 60° Northeast 490 564 41,000  Level Salt Lake Center
Tue 01:03:31 PM 37.5947 -112.5122 60° Northeast 488 562 41,000  Level Salt Lake Center
Tue 01:04:32 PM 37.6619 -112.3658 60° Northeast 487 560 41,000  Level Salt Lake Center
Tue 01:05:34 PM 37.7342 -112.2242 57° Northeast 485 558 41,000  Level Salt Lake Center
Tue 01:06:35 PM 37.8156 -112.0886 53° Northeast 485 558 41,000  Level Salt Lake Center
Tue 01:07:37 PM 37.9106 -111.9236 54° Northeast 485 558 41,000  Level Salt Lake Center
Tue 01:08:39 PM 37.9897 -111.7853 54° Northeast 486 559 41,000  Level Salt Lake Center
Tue 01:09:40 PM 38.0689 -111.6469 54° Northeast 487 560 41,000 49 Level Salt Lake Center
Tue 01:10:42 PM 38.1483 -111.5094 54° Northeast 484 557 41,100 488 Climbing Salt Lake Center
Tue 01:11:43 PM 38.2267 -111.3703 54° Northeast 485 558 42,000 829 Climbing Salt Lake Center
Tue 01:12:45 PM 38.3028 -111.2333 55° Northeast 478 550 42,800 488 Climbing Salt Lake Center
Tue 01:13:46 PM 38.3792 -111.0975 54° Northeast 475 547 43,000 98 Climbing Salt Lake Center
Tue 01:14:48 PM 38.4575 -110.9583 54° Northeast 483 556 43,000  Level Salt Lake Center
Tue 01:15:50 PM 38.5494 -110.7933 54° Northeast 480 552 43,000  Level Salt Lake Center
Tue 01:16:51 PM 38.6211 -110.6611 55° Northeast 475 547 43,000  Level Salt Lake Center
Tue 01:17:10 PM 38.6433 -110.6133 59° Northeast 476 548 43,000  Level Denver Center
Tue 01:17:53 PM 38.7058 -110.5058 53° Northeast 475 547 43,000  Level Salt Lake Center
Tue 01:18:55 PM 38.7792 -110.3733 55° Northeast 476 548 43,000  Level Salt Lake Center
Tue 01:19:14 PM 38.8025 -110.3286 56° Northeast 475 547 43,000  Level Denver Center
Tue 01:20:16 PM 38.8742 -110.1939 56° Northeast 477 549 43,000  Level Denver Center
Tue 01:20:58 PM 38.9347 -110.0853 54° Northeast 472 543 43,000  Level Salt Lake Center
Tue 01:21:59 PM 39.0075 -109.9514 55° Northeast 476 548 43,000  Level Salt Lake Center
Tue 01:23:01 PM 39.0922 -109.7956 55° Northeast 476 548 43,000  Level Salt Lake Center
Tue 01:23:22 PM 39.1153 -109.7472 58° Northeast 480 552 43,000  Level Denver Center
Tue 01:24:03 PM 39.1647 -109.6606 54° Northeast 478 550 43,000  Level Salt Lake Center
Tue 01:25:04 PM 39.2486 -109.5025 56° Northeast 479 551 43,000  Level Salt Lake Center
Tue 01:26:06 PM 39.3200 -109.3686 55° Northeast 474 545 43,000  Level Salt Lake Center
Tue 01:26:28 PM 39.3428 -109.3208 58° Northeast 475 547 43,000  Level Denver Center
Tue 01:27:30 PM 39.4258 -109.1628 56° Northeast 476 548 43,000  Level Denver Center
Tue 01:28:09 PM 39.4742 -109.0733 55° Northeast 479 551 43,000  Level Salt Lake Center
Tue 01:28:32 PM 39.4981 -109.0281 56° Northeast 476 548 43,000  Level Denver Center
Tue 01:29:34 PM 39.5808 -108.8694 56° Northeast 476 548 43,000  Level Denver Center
Tue 01:30:36 PM 39.6408 -108.7550 56° Northeast 480 552 43,000  Level Denver Center
Tue 01:31:38 PM 39.7306 -108.5819 56° Northeast 480 552 43,000  Level Denver Center
Tue 01:32:40 PM 39.8131 -108.4228 56° Northeast 476 548 43,000  Level Denver Center
Tue 01:33:42 PM 39.8847 -108.2853 56° Northeast 481 554 43,000  Level Denver Center
Tue 01:34:44 PM 39.9519 -108.1500 57° Northeast 462 532 43,000  Level Denver Center
Tue 01:35:46 PM 40.0339 -107.9900 56° Northeast 473 544 43,000  Level Denver Center
Tue 01:36:49 PM 40.0969 -107.8483 60° Northeast 472 543 43,000  Level Denver Center
Tue 01:37:51 PM 40.1611 -107.6756 64° Northeast 472 543 43,000  Level Denver Center
Tue 01:39:05 PM 40.2167 -107.5283 64° Northeast 471 542 43,000  Level Denver Center
Tue 01:40:07 PM 40.2925 -107.3311 63° Northeast 474 545 43,000  Level Denver Center
Tue 01:41:09 PM 40.3564 -107.1578 64° Northeast 474 545 43,000  Level Denver Center
Tue 01:42:11 PM 40.4122 -107.0081 64° Northeast 477 549 43,000  Level Denver Center
Tue 01:43:13 PM 40.4711 -106.8525 64° Northeast 478 550 43,000  Level Denver Center
Tue 01:44:15 PM 40.5292 -106.6931 64° Northeast 481 554 43,000  Level Denver Center
Tue 01:45:17 PM 40.5875 -106.5333 64° Northeast 481 554 43,000  Level Denver Center
Tue 01:46:19 PM 40.6519 -106.3525 65° Northeast 479 551 43,000  Level Denver Center
Tue 01:47:21 PM 40.7086 -106.2014 64° Northeast 479 551 43,000  Level Denver Center
Tue 01:48:23 PM 40.7733 -106.0186 65° Northeast 478 550 43,000  Level Denver Center
Tue 01:49:25 PM 40.8303 -105.8589 65° Northeast 478 550 43,000  Level Denver Center
Tue 01:50:27 PM 40.8878 -105.6994 64° Northeast 478 550 43,000  Level Denver Center
Tue 01:51:29 PM 40.9442 -105.5389 65° Northeast 479 551 43,000  Level Denver Center
Tue 01:52:31 PM 41.0006 -105.3764 65° Northeast 479 551 43,000  Level Denver Center
Tue 01:53:33 PM 41.0547 -105.2147 66° East 484 557 43,000  Level Denver Center
Tue 01:54:35 PM 41.1172 -105.0414 64° Northeast 475 547 43,000  Level Denver Center
Tue 01:55:37 PM 41.1697 -104.8894 65° Northeast 472 543 43,000  Level Denver Center
Tue 01:56:39 PM 41.2261 -104.7069 68° East 476 548 43,000  Level Denver Center
Tue 01:57:40 PM 41.2625 -104.5478 73° East 473 544 43,000  Level Denver Center
Tue 01:58:42 PM 41.3006 -104.4175 69° East 475 547 43,000  Level Denver Center
Tue 01:59:44 PM 41.3706 -104.2128 65° Northeast 476 548 43,000  Level Denver Center
Tue 02:00:58 PM 41.4389 -104.0100 66° East 474 545 43,000  Level Denver Center
Tue 02:02:00 PM 41.4900 -103.8564 66° East 475 547 43,000  Level Denver Center
Tue 02:03:02 PM 41.5517 -103.6733 66° East 484 557 43,000  Level Denver Center
Tue 02:04:03 PM 41.5947 -103.5439 66° East 482 555 43,000  Level Denver Center
Tue 02:05:05 PM 41.6639 -103.3364 66° East 480 552 43,000  Level Denver Center
Tue 02:06:07 PM 41.7144 -103.1811 66° East 479 551 43,000  Level Denver Center
Tue 02:07:09 PM 41.7744 -102.9994 66° East 479 551 43,000  Level Denver Center
Tue 02:08:11 PM 41.8247 -102.8428 67° East 479 551 43,000  Level Denver Center
Tue 02:09:24 PM 41.8836 -102.6603 67° East 479 551 43,000  Level Denver Center
Tue 02:10:27 PM 41.9425 -102.4764 67° East 480 552 43,000  Level Denver Center
Tue 02:11:28 PM 42.0000 -102.2919 67° East 482 555 43,000  Level Denver Center
Tue 02:12:30 PM 42.0564 -102.1203 66° East 484 557 43,000  Level Denver Center
Tue 02:13:32 PM 42.1058 -101.9600 67° East 485 558 43,000  Level Denver Center
Tue 02:14:34 PM 42.1644 -101.7731 67° East 484 557 43,000  Level Denver Center
Tue 02:15:35 PM 42.2133 -101.6125 68° East 483 556 43,000  Level Denver Center
Tue 02:16:37 PM 42.2633 -101.4508 67° East 486 559 43,000  Level Denver Center
Tue 02:17:39 PM 42.3203 -101.2636 68° East 482 555 43,000  Level Denver Center
Tue 02:18:41 PM 42.3697 -101.1019 67° East 484 557 43,000  Level Denver Center
Tue 02:19:42 PM 42.4261 -100.9150 68° East 481 554 43,000  Level Denver Center
Tue 02:20:44 PM 42.4736 -100.7547 68° East 479 551 43,000  Level Denver Center
Tue 02:21:46 PM 42.5219 -100.5928 68° East 481 554 43,000  Level Denver Center
Tue 02:22:48 PM 42.5781 -100.4069 68° East 478 550 43,000  Level Denver Center
Tue 02:23:49 PM 42.6242 -100.2481 68° East 474 545 43,000  Level Denver Center
Tue 02:24:51 PM 42.6783 -100.0597 69° East 478 550 43,000  Level Denver Center
Tue 02:25:53 PM 42.7264 -99.8942 68° East 476 548 43,000  Level Denver Center
Tue 02:26:55 PM 42.7744 -99.7258 69° East 477 549 43,000  Level Denver Center
Tue 02:27:30 PM 42.8067 -99.6178 68° East 479 551 43,000 -557 Level Minneapolis Center
Tue 02:28:32 PM 42.8539 -99.4494 69° East 476 548 42,100 -1,500 Descending Minneapolis Center
Tue 02:29:34 PM 42.9022 -99.2797 69° East 477 549 39,900 -2,419 Descending Minneapolis Center
Tue 02:30:36 PM 42.9497 -99.1117 69° East 473 544 37,100 -2,613 Descending Minneapolis Center
Tue 02:31:38 PM 42.9950 -98.9453 70° East 478 550 34,500 -2,903 Descending Minneapolis Center
Tue 02:32:40 PM 43.0550 -98.7283 69° East 507 583 31,100 -3,048 Descending Minneapolis Center
Tue 02:33:42 PM 43.1072 -98.5447 69° East 517 595 28,200 -2,806 Descending Minneapolis Center
Tue 02:34:44 PM 43.1547 -98.3686 70° East 498 573 25,300 -2,661 Descending Minneapolis Center
Tue 02:35:46 PM 43.1981 -98.2019 70° East 474 545 22,700 -2,516 Descending Minneapolis Center
Tue 02:36:48 PM 43.2400 -98.0461 70° East 446 513 20,100 -2,736 Descending Minneapolis Center
Tue 02:37:51 PM 43.2811 -97.8958 69° East 427 491 17,000 -3,216 Descending Minneapolis Center
Tue 02:38:53 PM 43.3261 -97.7297 70° East 392 451 13,400 -2,806 Descending Minneapolis Center
Tue 02:39:55 PM 43.3561 -97.5994 72° East 374 430 11,200 -1,694 Descending Minneapolis Center
Tue 02:40:57 PM 43.3850 -97.4931 69° East 331 381 9,900 -1,500 Descending Minneapolis Center
Tue 02:41:59 PM 43.4119 -97.3953 69° East 297 342 8,100 -1,742 Descending Minneapolis Center
Tue 02:43:01 PM 43.4369 -97.2972 71° East 281 323 6,300 -1,016 Descending Minneapolis Center
Tue 02:44:03 PM 43.4625 -97.2014 70° East 273 314 6,000 -145 Descending Minneapolis Center
Tue 02:45:05 PM 43.4931 -97.0839 70° East 272 313 6,000  Level Minneapolis Center
Tue 02:46:07 PM 43.5181 -96.9858 71° East 273 314 6,000 -726 Level Minneapolis Center
Tue 02:47:09 PM 43.5428 -96.8906 70° East 270 311 4,500 -1,403 Descending Minneapolis Center
Tue 02:48:11 PM 43.5717 -96.8011 66° East 264 304 3,100 -871 Descending Minneapolis Center
Tue 02:49:13 PM 43.6292 -96.7764 17° North 226 260 2,700 -435 Descending Minneapolis Center
Tue 02:50:15 PM 43.6272 -96.7228 93° East 161 185 2,200 -387 Descending Minneapolis Center
Tue 02:51:17 PM 43.5961 -96.7267 185° South 150 173 1,900 -290 Descending Minneapolis Center
Tue 02:53:00 PM 43.5820 -96.7419 194° South  Level Estimated
Tue 03:00:00 PM 43.5820 -96.7419 194° South  Level Estimated

Login

Don't have an account? Register now (free) for customized features, flight alerts, and more!